createdAt,value
2018-01-08T00:00:55.897Z,991.5
2018-01-08T00:02:04.688Z,991.5
2018-01-08T00:03:07.356Z,991.6
2018-01-08T00:04:10.074Z,991.5
2018-01-08T00:05:12.656Z,991.5
2018-01-08T00:06:15.218Z,991.6
2018-01-08T00:07:19.756Z,991.5
2018-01-08T00:08:34.011Z,991.5
2018-01-08T00:09:39.504Z,991.6
2018-01-08T00:10:42.017Z,991.6
2018-01-08T00:11:44.562Z,991.5
2018-01-08T00:13:00.795Z,991.5
2018-01-08T00:14:03.421Z,991.5
2018-01-08T00:15:06.002Z,991.5
2018-01-08T00:16:08.608Z,991.4
2018-01-08T00:17:11.140Z,991.6
2018-01-08T00:18:13.733Z,991.5
2018-01-08T00:19:16.270Z,991.5
2018-01-08T00:20:19.009Z,991.6
2018-01-08T00:21:26.700Z,991.5
2018-01-08T00:22:29.308Z,991.4
2018-01-08T00:23:31.908Z,991.3
2018-01-08T00:24:34.445Z,991.3
2018-01-08T00:25:37.064Z,991.3
2018-01-08T00:26:39.778Z,991.3
2018-01-08T00:27:42.424Z,991.4
2018-01-08T00:28:45.000Z,991.4
2018-01-08T00:29:47.554Z,991.3
2018-01-08T00:30:50.234Z,991.3
2018-01-08T00:31:53.022Z,991.3
2018-01-08T00:32:55.624Z,991.3
2018-01-08T00:33:58.124Z,991.4
2018-01-08T00:35:00.894Z,991.2
2018-01-08T00:36:03.588Z,991.4
2018-01-08T00:37:06.119Z,991.3
2018-01-08T00:38:08.722Z,991.3
2018-01-08T00:39:11.238Z,991.4
2018-01-08T00:40:13.849Z,991.3
2018-01-08T00:41:16.455Z,991.3
2018-01-08T00:42:19.054Z,991.3
2018-01-08T00:43:21.581Z,991.3
2018-01-08T00:44:24.120Z,991.3
2018-01-08T00:45:26.648Z,991.3
2018-01-08T00:46:29.260Z,991.4
2018-01-08T00:47:31.834Z,991.2
2018-01-08T00:48:34.418Z,991.4
2018-01-08T00:49:36.990Z,991.4
2018-01-08T00:50:39.517Z,991.3
2018-01-08T00:51:45.569Z,991.3
2018-01-08T00:52:48.109Z,991.3
2018-01-08T00:53:50.652Z,991.3
2018-01-08T00:54:53.199Z,991.5
2018-01-08T00:55:55.769Z,991.3
2018-01-08T00:56:58.340Z,991.3
2018-01-08T00:58:01.061Z,991.4
2018-01-08T00:59:03.665Z,991.4
2018-01-08T01:00:06.183Z,991.3
2018-01-08T01:01:08.877Z,991.4
2018-01-08T01:02:11.505Z,991.3
2018-01-08T01:03:13.958Z,991.4
2018-01-08T01:04:16.433Z,991.4
2018-01-08T01:05:19.237Z,991.3
2018-01-08T01:06:21.737Z,991.4
2018-01-08T01:07:24.185Z,991.4
2018-01-08T01:08:26.661Z,991.3
2018-01-08T01:09:29.289Z,991.4
2018-01-08T01:10:31.832Z,991.4
2018-01-08T01:11:34.401Z,991.3
2018-01-08T01:12:36.934Z,991.1
2018-01-08T01:13:39.728Z,991.3
2018-01-08T01:14:42.462Z,991.2
2018-01-08T01:15:45.003Z,991.2
2018-01-08T01:16:47.573Z,991.3
2018-01-08T01:17:50.215Z,991.3
2018-01-08T01:18:52.689Z,991.2
2018-01-08T01:19:55.137Z,991.2
2018-01-08T01:20:57.961Z,991.3
2018-01-08T01:22:00.970Z,991.2
2018-01-08T01:23:03.890Z,991.2
2018-01-08T01:24:06.483Z,991
2018-01-08T01:25:09.138Z,991.4
2018-01-08T01:26:11.743Z,991.3
2018-01-08T01:27:18.738Z,991.2
2018-01-08T01:28:21.192Z,991.3
2018-01-08T01:29:23.694Z,991.2
2018-01-08T01:30:26.232Z,991.3
2018-01-08T01:31:28.828Z,991.2
2018-01-08T01:32:31.372Z,991.2
2018-01-08T01:33:33.944Z,991.3
2018-01-08T01:34:36.542Z,991.3
2018-01-08T01:35:39.106Z,991.3
2018-01-08T01:36:41.711Z,991.3
2018-01-08T01:37:44.253Z,991.4
2018-01-08T01:38:46.847Z,991.3
2018-01-08T01:39:49.389Z,991.2
2018-01-08T01:40:51.935Z,991.2
2018-01-08T01:41:54.446Z,991.2
2018-01-08T01:42:56.995Z,991.3
2018-01-08T01:43:59.512Z,991.2
2018-01-08T01:45:02.068Z,991.2
2018-01-08T01:46:04.771Z,991.2
2018-01-08T01:47:07.316Z,991.2
2018-01-08T01:48:09.918Z,991.3
2018-01-08T01:49:12.519Z,991.2
2018-01-08T01:50:14.995Z,991.2
2018-01-08T01:51:26.870Z,991.2
2018-01-08T01:52:29.441Z,991.3
2018-01-08T01:53:31.947Z,991.2
2018-01-08T01:54:34.452Z,991.2
2018-01-08T01:55:36.954Z,991.3
2018-01-08T01:56:39.555Z,991.2
2018-01-08T01:57:42.051Z,991.2
2018-01-08T01:58:44.555Z,991.3
2018-01-08T01:59:47.108Z,991.2
2018-01-08T02:00:49.691Z,991.4
2018-01-08T02:01:52.259Z,991.2
2018-01-08T02:02:55.024Z,991.3
2018-01-08T02:03:57.603Z,991.2
2018-01-08T02:05:00.121Z,991.3
2018-01-08T02:06:02.668Z,991.2
2018-01-08T02:07:05.196Z,991.2
2018-01-08T02:08:07.765Z,991.4
2018-01-08T02:09:10.385Z,991.2
2018-01-08T02:10:12.937Z,991.4
2018-01-08T02:11:25.940Z,991.3
2018-01-08T02:12:28.515Z,991.3
2018-01-08T02:13:31.050Z,991.2
2018-01-08T02:14:33.539Z,991.3
2018-01-08T02:15:36.053Z,991.3
2018-01-08T02:16:43.528Z,991.3
2018-01-08T02:17:46.051Z,991.3
2018-01-08T02:18:48.580Z,991.2
2018-01-08T02:19:51.067Z,991.3
2018-01-08T02:20:53.592Z,991.3
2018-01-08T02:21:56.131Z,991.2
2018-01-08T02:22:58.831Z,991.3
2018-01-08T02:24:01.671Z,991.2
2018-01-08T02:25:04.218Z,991.3
2018-01-08T02:26:06.895Z,991.3
2018-01-08T02:27:09.494Z,991.3
2018-01-08T02:28:12.597Z,991.3
2018-01-08T02:29:15.314Z,991.3
2018-01-08T02:30:17.841Z,991
2018-01-08T02:31:20.415Z,991.2
2018-01-08T02:32:22.937Z,991.3
2018-01-08T02:33:25.541Z,991.3
2018-01-08T02:34:28.108Z,991.3
2018-01-08T02:35:30.728Z,991.3
2018-01-08T02:36:33.214Z,991.4
2018-01-08T02:37:35.777Z,991.4
2018-01-08T02:38:38.247Z,991.3
2018-01-08T02:39:40.816Z,991.4
2018-01-08T02:40:43.303Z,991.3
2018-01-08T02:41:45.795Z,991.4
2018-01-08T02:42:48.246Z,991.2
2018-01-08T02:43:50.770Z,991.3
2018-01-08T02:44:53.354Z,991.6
2018-01-08T02:45:55.842Z,991.3
2018-01-08T02:47:04.383Z,991.3
2018-01-08T02:48:06.865Z,991.3
2018-01-08T02:49:09.562Z,991.3
2018-01-08T02:50:12.105Z,991.3
2018-01-08T02:51:14.583Z,991.3
2018-01-08T02:52:22.805Z,991.2
2018-01-08T02:53:25.307Z,991.2
2018-01-08T02:54:27.792Z,991.4
2018-01-08T02:55:30.404Z,991.2
2018-01-08T02:56:32.960Z,991.1
2018-01-08T02:57:35.507Z,991.2
2018-01-08T02:58:38.088Z,991.2
2018-01-08T02:59:40.653Z,990.8
2018-01-08T03:00:43.253Z,991.2
2018-01-08T03:01:45.865Z,991.2
2018-01-08T03:02:48.444Z,991.2
2018-01-08T03:03:51.019Z,991.6
2018-01-08T03:04:53.532Z,991.3
2018-01-08T03:05:56.041Z,991.3
2018-01-08T03:06:58.700Z,991.1
2018-01-08T03:08:01.720Z,991.4
2018-01-08T03:09:05.031Z,991.4
2018-01-08T03:10:07.635Z,991.3
2018-01-08T03:11:10.331Z,991.3
2018-01-08T03:12:13.347Z,991.3
2018-01-08T03:13:20.777Z,991.3
2018-01-08T03:14:23.289Z,991.3
2018-01-08T03:15:25.834Z,991.3
2018-01-08T03:16:28.376Z,991.2
2018-01-08T03:17:31.027Z,991.3
2018-01-08T03:18:33.599Z,991.2
2018-01-08T03:19:36.114Z,991.3
2018-01-08T03:20:38.653Z,991.3
2018-01-08T03:21:41.257Z,991.4
2018-01-08T03:22:43.832Z,991.5
2018-01-08T03:23:46.609Z,991.4
2018-01-08T03:24:49.186Z,991.4
2018-01-08T03:25:51.723Z,991.4
2018-01-08T03:26:54.304Z,991.5
2018-01-08T03:27:56.831Z,991.4
2018-01-08T03:28:59.388Z,991.3
2018-01-08T03:30:02.183Z,991.4
2018-01-08T03:31:04.833Z,991.3
2018-01-08T03:32:07.544Z,991.4
2018-01-08T03:33:10.077Z,991.3
2018-01-08T03:34:12.751Z,991.4
2018-01-08T03:35:15.304Z,991.3
2018-01-08T03:36:17.837Z,991.3
2018-01-08T03:37:20.420Z,991.3
2018-01-08T03:38:23.643Z,991.6
2018-01-08T03:39:26.177Z,991.3
2018-01-08T03:40:28.627Z,991.3
2018-01-08T03:41:31.204Z,991.4
2018-01-08T03:42:33.930Z,991.4
2018-01-08T03:43:36.434Z,991.4
2018-01-08T03:44:39.064Z,991.7
2018-01-08T03:45:41.678Z,991.3
2018-01-08T03:46:47.715Z,991.4
2018-01-08T03:47:50.239Z,991.4
2018-01-08T03:48:52.861Z,991.4
2018-01-08T03:49:55.372Z,991.3
2018-01-08T03:50:57.980Z,991.5
2018-01-08T03:52:00.526Z,991.3
2018-01-08T03:53:03.179Z,991.4
2018-01-08T03:54:05.708Z,991.4
2018-01-08T03:55:08.321Z,991
2018-01-08T03:56:10.913Z,991.3
2018-01-08T03:57:13.464Z,991.3
2018-01-08T03:58:16.091Z,991.4
2018-01-08T03:59:18.623Z,991.3
2018-01-08T04:00:21.236Z,991.3
2018-01-08T04:01:23.767Z,991.4
2018-01-08T04:02:26.275Z,991.4
2018-01-08T04:03:28.854Z,991.3
2018-01-08T04:04:31.364Z,991.3
2018-01-08T04:05:34.448Z,991.1
2018-01-08T04:06:37.004Z,991.4
2018-01-08T04:07:39.622Z,991.4
2018-01-08T04:08:42.192Z,991.4
2018-01-08T04:09:44.731Z,991.2
2018-01-08T04:10:47.203Z,991.4
2018-01-08T04:11:49.763Z,991.3
2018-01-08T04:12:52.324Z,991.3
2018-01-08T04:13:54.899Z,991.6
2018-01-08T04:14:57.462Z,991.4
2018-01-08T04:16:00.084Z,991.4
2018-01-08T04:17:02.790Z,991.3
2018-01-08T04:18:05.371Z,991.4
2018-01-08T04:19:07.979Z,991.5
2018-01-08T04:20:10.980Z,991.3
2018-01-08T04:21:13.546Z,991.3
2018-01-08T04:22:16.061Z,991.3
2018-01-08T04:23:18.706Z,991.3
2018-01-08T04:24:21.353Z,991.4
2018-01-08T04:25:23.893Z,991.5
2018-01-08T04:26:26.466Z,991.3
2018-01-08T04:27:29.077Z,991.4
2018-01-08T04:28:31.652Z,991.6
2018-01-08T04:29:34.215Z,991.4
2018-01-08T04:30:36.864Z,991.4
2018-01-08T04:31:39.533Z,991.4
2018-01-08T04:32:42.048Z,991.7
2018-01-08T04:33:44.634Z,991.4
2018-01-08T04:34:47.164Z,991.3
2018-01-08T04:35:49.816Z,991.4
2018-01-08T04:36:52.343Z,991.4
2018-01-08T04:37:54.855Z,991.4
2018-01-08T04:38:57.516Z,991.1
2018-01-08T04:40:00.171Z,991.4
2018-01-08T04:41:02.725Z,991.4
2018-01-08T04:42:05.276Z,991.6
2018-01-08T04:43:07.868Z,991.3
2018-01-08T04:44:10.510Z,991.4
2018-01-08T04:45:13.511Z,991.4
2018-01-08T04:46:16.125Z,991.4
2018-01-08T04:47:18.753Z,991.1
2018-01-08T04:48:21.559Z,991.5
2018-01-08T04:49:24.179Z,991.4
2018-01-08T04:50:26.838Z,991.4
2018-01-08T04:51:29.383Z,991.5
2018-01-08T04:52:32.001Z,991.5
2018-01-08T04:53:34.474Z,991.3
2018-01-08T04:54:37.008Z,991.3
2018-01-08T04:55:39.704Z,991.5
2018-01-08T04:56:42.394Z,991.4
2018-01-08T04:57:44.939Z,991.4
2018-01-08T04:58:48.538Z,991.6
2018-01-08T04:59:51.309Z,991.4
2018-01-08T05:00:53.840Z,991.5
2018-01-08T05:01:56.391Z,991.5
2018-01-08T05:02:58.915Z,991.4
2018-01-08T05:04:01.544Z,991.6
2018-01-08T05:05:04.263Z,991.5
2018-01-08T05:06:06.907Z,991.5
2018-01-08T05:07:09.387Z,991.5
2018-01-08T05:08:12.145Z,991.8
2018-01-08T05:09:14.664Z,991.5
2018-01-08T05:10:17.202Z,991.5
2018-01-08T05:11:19.767Z,991.4
2018-01-08T05:12:26.592Z,991.2
2018-01-08T05:13:29.068Z,991.5
2018-01-08T05:14:31.831Z,991.4
2018-01-08T05:15:34.456Z,991.5
2018-01-08T05:16:37.097Z,991.5
2018-01-08T05:17:40.750Z,991.5
2018-01-08T05:18:43.454Z,991.5
2018-01-08T05:19:46.141Z,991.4
2018-01-08T05:20:48.720Z,991.3
2018-01-08T05:21:51.339Z,991.4
2018-01-08T05:22:59.518Z,991.4
2018-01-08T05:24:02.193Z,991.4
2018-01-08T05:25:04.735Z,991.5
2018-01-08T05:26:07.350Z,991.4
2018-01-08T05:27:10.032Z,991.7
2018-01-08T05:28:18.692Z,991.5
2018-01-08T05:29:21.413Z,991.6
2018-01-08T05:30:24.175Z,991.4
2018-01-08T05:31:27.437Z,991.4
2018-01-08T05:32:35.363Z,991.6
2018-01-08T05:33:38.068Z,991.4
2018-01-08T05:34:40.655Z,991.5
2018-01-08T05:35:43.224Z,991.3
2018-01-08T05:36:45.749Z,991.4
2018-01-08T05:37:48.399Z,991.5
2018-01-08T05:38:51.105Z,991.5
2018-01-08T05:39:53.676Z,991.4
2018-01-08T05:40:56.253Z,991.4
2018-01-08T05:41:58.940Z,991.4
2018-01-08T05:43:01.971Z,991.3
2018-01-08T05:44:04.617Z,991.4
2018-01-08T05:45:07.324Z,991.4
2018-01-08T05:46:10.028Z,991.3
2018-01-08T05:47:12.746Z,991.4
2018-01-08T05:48:15.521Z,991.4
2018-01-08T05:49:18.037Z,991.2
2018-01-08T05:50:20.719Z,991.3
2018-01-08T05:51:25.824Z,991.4
2018-01-08T05:52:28.538Z,991.3
2018-01-08T05:53:31.199Z,991.3
2018-01-08T05:54:33.822Z,991.5
2018-01-08T05:55:36.421Z,991.5
2018-01-08T05:56:39.110Z,991.4
2018-01-08T05:57:41.908Z,991.5
2018-01-08T05:58:44.636Z,991.4
2018-01-08T05:59:47.289Z,991.4
2018-01-08T06:00:50.060Z,991.4
2018-01-08T06:01:53.089Z,991.4
2018-01-08T06:02:59.200Z,991.4
2018-01-08T06:04:02.160Z,991.4
2018-01-08T06:05:04.987Z,991.5
2018-01-08T06:06:07.796Z,991.4
2018-01-08T06:07:10.744Z,991.4
2018-01-08T06:08:16.950Z,991.3
2018-01-08T06:09:19.692Z,991.7
2018-01-08T06:10:22.348Z,991.3
2018-01-08T06:11:24.974Z,991.3
2018-01-08T06:12:27.688Z,991.4
2018-01-08T06:13:30.419Z,991.3
2018-01-08T06:14:33.091Z,991.4
2018-01-08T06:15:35.857Z,991.4
2018-01-08T06:16:38.617Z,991.3
2018-01-08T06:17:41.346Z,991.3
2018-01-08T06:18:43.941Z,991.3
2018-01-08T06:19:46.813Z,991.5
2018-01-08T06:20:49.554Z,991.3
2018-01-08T06:21:52.249Z,991.4
2018-01-08T06:22:55.051Z,991.3
2018-01-08T06:23:57.828Z,990.9
2018-01-08T06:25:00.628Z,991.3
2018-01-08T06:26:03.353Z,991.2
2018-01-08T06:27:06.492Z,991
2018-01-08T06:28:11.681Z,991.3
2018-01-08T06:29:14.360Z,991.3
2018-01-08T06:30:17.015Z,991.3
2018-01-08T06:31:19.544Z,991.3
2018-01-08T06:32:22.247Z,991.2
2018-01-08T06:33:24.880Z,991.3
2018-01-08T06:34:27.635Z,991.4
2018-01-08T06:35:30.380Z,991.4
2018-01-08T06:36:33.069Z,991.3
2018-01-08T06:37:35.759Z,991.5
2018-01-08T06:38:38.448Z,991.4
2018-01-08T06:39:41.042Z,991.4
2018-01-08T06:40:43.830Z,991.4
2018-01-08T06:41:46.484Z,991.4
2018-01-08T06:42:49.250Z,991.3
2018-01-08T06:43:51.926Z,991.3
2018-01-08T06:44:54.761Z,991.4
2018-01-08T06:45:57.481Z,991.4
2018-01-08T06:47:00.441Z,991.3
2018-01-08T06:48:03.195Z,991.4
2018-01-08T06:49:06.369Z,991.5
2018-01-08T06:50:09.212Z,991.4
2018-01-08T06:51:12.622Z,991.3
2018-01-08T06:52:15.474Z,991.3
2018-01-08T06:53:18.063Z,991.3
2018-01-08T06:54:20.917Z,991.3
2018-01-08T06:55:23.956Z,991.2
2018-01-08T06:56:26.821Z,991.3
2018-01-08T06:57:29.886Z,991.3
2018-01-08T06:58:32.608Z,991.3
2018-01-08T06:59:35.150Z,991.3
2018-01-08T07:00:37.772Z,991.3
2018-01-08T07:01:40.654Z,991.4
2018-01-08T07:02:43.447Z,991.4
2018-01-08T07:03:46.452Z,991.3
2018-01-08T07:04:50.622Z,991.3
2018-01-08T07:05:53.618Z,991.3
2018-01-08T07:06:58.415Z,991.4
2018-01-08T07:08:03.902Z,991.4
2018-01-08T07:09:10.628Z,991.4
2018-01-08T07:10:13.923Z,991.5
2018-01-08T07:11:25.989Z,991.2
2018-01-08T07:12:29.326Z,991.5
2018-01-08T07:13:32.522Z,991.4
2018-01-08T07:14:35.166Z,991.5
2018-01-08T07:15:37.780Z,991.4
2018-01-08T07:16:40.864Z,991.4
2018-01-08T07:17:43.585Z,991.1
2018-01-08T07:18:46.541Z,991.4
2018-01-08T07:19:49.256Z,991.4
2018-01-08T07:20:52.024Z,991.4
2018-01-08T07:21:54.687Z,991.4
2018-01-08T07:23:03.983Z,991.4
2018-01-08T07:24:06.589Z,991.4
2018-01-08T07:25:09.292Z,991.4
2018-01-08T07:26:12.058Z,991.4
2018-01-08T07:27:16.486Z,991.2
2018-01-08T07:28:24.231Z,991.4
2018-01-08T07:29:28.652Z,991.4
2018-01-08T07:30:32.779Z,991.2
2018-01-08T07:31:37.525Z,991.3
2018-01-08T07:32:45.654Z,991.4
2018-01-08T07:33:51.004Z,991.3
2018-01-08T07:34:55.647Z,991.2
2018-01-08T07:35:59.757Z,991.4
2018-01-08T07:37:03.784Z,991.3
2018-01-08T07:38:06.470Z,991.3
2018-01-08T07:39:09.891Z,991.3
2018-01-08T07:40:13.592Z,991.4
2018-01-08T07:41:16.327Z,991.3
2018-01-08T07:42:19.036Z,991.3
2018-01-08T07:43:24.190Z,991.3
2018-01-08T07:44:28.587Z,991.3
2018-01-08T07:45:33.759Z,991.3
2018-01-08T07:46:38.814Z,991.3
2018-01-08T07:47:51.430Z,991.1
2018-01-08T07:48:55.426Z,991.3
2018-01-08T07:49:59.449Z,991.1
2018-01-08T07:51:13.858Z,991.1
2018-01-08T07:52:16.598Z,991.3
2018-01-08T07:53:19.176Z,991.3
2018-01-08T07:54:29.001Z,991.1
2018-01-08T07:55:32.092Z,991.3
2018-01-08T07:56:34.940Z,991.1
2018-01-08T07:57:37.993Z,991.2
2018-01-08T07:58:41.131Z,991.3
2018-01-08T07:59:43.933Z,991.2
2018-01-08T08:00:46.653Z,991.2
2018-01-08T08:01:49.592Z,991.3
2018-01-08T08:02:58.578Z,991.2
2018-01-08T08:04:01.592Z,991.3
2018-01-08T08:05:04.189Z,991.2
2018-01-08T08:06:07.231Z,991.3
2018-01-08T08:07:09.943Z,991.3
2018-01-08T08:08:13.088Z,991.2
2018-01-08T08:09:15.697Z,991.3
2018-01-08T08:10:18.240Z,991.2
2018-01-08T08:11:21.173Z,991.2
2018-01-08T08:12:23.917Z,991.2
2018-01-08T08:13:26.575Z,991.3
2018-01-08T08:14:29.311Z,991.2
2018-01-08T08:15:32.284Z,991
2018-01-08T08:16:35.235Z,991.3
2018-01-08T08:17:38.062Z,991.3
2018-01-08T08:18:41.086Z,991.2
2018-01-08T08:19:43.762Z,991.2
2018-01-08T08:20:46.559Z,991.2
2018-01-08T08:21:49.196Z,991
2018-01-08T08:22:51.926Z,991.1
2018-01-08T08:23:54.538Z,991.1
2018-01-08T08:24:57.159Z,991.3
2018-01-08T08:25:59.962Z,991.2
2018-01-08T08:27:03.056Z,991.2
2018-01-08T08:28:08.451Z,991.2
2018-01-08T08:29:11.539Z,991.2
2018-01-08T08:30:14.346Z,991.1
2018-01-08T08:31:17.219Z,991.1
2018-01-08T08:32:20.166Z,991.2
2018-01-08T08:33:23.043Z,991.1
2018-01-08T08:34:25.843Z,991.1
2018-01-08T08:35:28.786Z,990.9
2018-01-08T08:36:31.565Z,991.1
2018-01-08T08:37:34.687Z,991
2018-01-08T08:38:37.338Z,991
2018-01-08T08:39:40.125Z,991
2018-01-08T08:40:42.769Z,991.1
2018-01-08T08:41:45.530Z,991
2018-01-08T08:42:48.364Z,991.1
2018-01-08T08:43:51.287Z,991
2018-01-08T08:44:55.315Z,991
2018-01-08T08:45:58.084Z,991
2018-01-08T08:47:00.962Z,991
2018-01-08T08:48:04.531Z,991
2018-01-08T08:49:07.339Z,991
2018-01-08T08:50:10.138Z,991
2018-01-08T08:51:13.017Z,991
2018-01-08T08:52:15.943Z,991
2018-01-08T08:53:18.654Z,991
2018-01-08T08:54:21.562Z,990.9
2018-01-08T08:55:24.156Z,990.8
2018-01-08T08:56:27.105Z,991
2018-01-08T08:57:29.883Z,991
2018-01-08T08:58:33.383Z,991
2018-01-08T08:59:36.340Z,990.8
2018-01-08T09:00:39.208Z,991.1
2018-01-08T09:01:46.110Z,991.1
2018-01-08T09:02:49.014Z,991.1
2018-01-08T09:03:51.915Z,991.1
2018-01-08T09:04:54.840Z,991.2
2018-01-08T09:05:57.779Z,991.1
2018-01-08T09:07:00.819Z,991.2
2018-01-08T09:08:04.756Z,991.2
2018-01-08T09:09:07.559Z,991.2
2018-01-08T09:10:10.412Z,991.2
2018-01-08T09:11:13.205Z,991.2
2018-01-08T09:12:15.977Z,991.2
2018-01-08T09:13:19.348Z,991.2
2018-01-08T09:14:22.103Z,991.2
2018-01-08T09:15:25.115Z,991.2
2018-01-08T09:16:28.365Z,991.2
2018-01-08T09:17:31.662Z,991.2
2018-01-08T09:18:35.309Z,991.2
2018-01-08T09:19:38.106Z,991.2
2018-01-08T09:20:40.890Z,991.3
2018-01-08T09:21:43.966Z,991.1
2018-01-08T09:22:49.872Z,991.2
2018-01-08T09:23:52.857Z,991.2
2018-01-08T09:24:55.595Z,991.2
2018-01-08T09:25:58.946Z,991.3
2018-01-08T09:27:01.725Z,991.2
2018-01-08T09:28:12.870Z,991.2
2018-01-08T09:29:16.556Z,991.2
2018-01-08T09:29:29.893Z,991.1
2018-01-08T09:30:34.420Z,991
2018-01-08T09:31:37.306Z,991.2
2018-01-08T09:32:40.121Z,991.2
2018-01-08T09:33:42.885Z,991.1
2018-01-08T09:34:45.784Z,990.7
2018-01-08T09:35:48.777Z,991.1
2018-01-08T09:36:52.120Z,991
2018-01-08T09:38:02.675Z,991.2
2018-01-08T09:39:05.730Z,991.2
2018-01-08T09:40:08.592Z,991.2
2018-01-08T09:41:11.764Z,991.2
2018-01-08T09:42:14.474Z,991.2
2018-01-08T09:43:17.328Z,991.2
2018-01-08T09:44:20.153Z,991.2
2018-01-08T09:45:23.345Z,991
2018-01-08T09:46:26.451Z,991
2018-01-08T09:47:29.510Z,991.3
2018-01-08T09:48:32.395Z,991.3
2018-01-08T09:49:35.203Z,991.2
2018-01-08T09:50:38.062Z,991.2
2018-01-08T09:51:41.404Z,991.2
2018-01-08T09:52:46.234Z,991.1
2018-01-08T09:53:49.292Z,991.1
2018-01-08T09:54:52.080Z,991.1
2018-01-08T09:55:54.953Z,991.2
2018-01-08T09:56:59.468Z,991.2
2018-01-08T09:58:02.715Z,990.8
2018-01-08T09:59:05.697Z,991.2
2018-01-08T10:00:08.766Z,990.9
2018-01-08T10:01:23.954Z,990.9
2018-01-08T10:02:26.842Z,991.1
2018-01-08T10:03:29.583Z,991.1
2018-01-08T10:04:32.571Z,991.1
2018-01-08T10:05:35.572Z,991.1
2018-01-08T10:06:41.207Z,991.1
2018-01-08T10:07:48.045Z,990.8
2018-01-08T10:08:51.135Z,991.1
2018-01-08T10:09:55.129Z,990.9
2018-01-08T10:10:57.876Z,991
2018-01-08T10:12:01.394Z,991.1
2018-01-08T10:13:04.602Z,991.2
2018-01-08T10:14:07.463Z,991.1
2018-01-08T10:15:10.559Z,991.1
2018-01-08T10:16:14.636Z,991.1
2018-01-08T10:17:17.506Z,991.1
2018-01-08T10:18:20.372Z,991.1
2018-01-08T10:19:23.475Z,990.9
2018-01-08T10:20:26.240Z,991
2018-01-08T10:21:29.073Z,990.9
2018-01-08T10:22:32.357Z,991
2018-01-08T10:23:35.578Z,991
2018-01-08T10:24:38.394Z,990.7
2018-01-08T10:25:41.503Z,990.9
2018-01-08T10:26:44.488Z,990.7
2018-01-08T10:27:48.236Z,990.9
2018-01-08T10:28:51.044Z,991
2018-01-08T10:29:53.976Z,990.9
2018-01-08T10:30:56.933Z,991
2018-01-08T10:31:59.838Z,991
2018-01-08T10:33:05.447Z,990.9
2018-01-08T10:34:08.335Z,990.9
2018-01-08T10:35:11.567Z,990.9
2018-01-08T10:36:15.763Z,990.9
2018-01-08T10:37:18.736Z,990.9
2018-01-08T10:38:21.837Z,990.9
2018-01-08T10:39:25.146Z,990.9
2018-01-08T10:40:28.284Z,990.9
2018-01-08T10:41:31.259Z,990.9
2018-01-08T10:42:34.214Z,990.9
2018-01-08T10:43:37.308Z,990.8
2018-01-08T10:44:40.192Z,990.7
2018-01-08T10:45:43.261Z,990.8
2018-01-08T10:46:46.838Z,990.9
2018-01-08T10:47:49.841Z,990.9
2018-01-08T10:48:53.164Z,990.8
2018-01-08T10:49:56.120Z,990.8
2018-01-08T10:50:58.990Z,990.8
2018-01-08T10:52:08.084Z,990.7
2018-01-08T10:53:10.998Z,990.8
2018-01-08T10:54:14.149Z,990.8
2018-01-08T10:55:17.124Z,990.8
2018-01-08T10:56:20.414Z,990.8
2018-01-08T10:57:28.393Z,990.9
2018-01-08T10:58:31.412Z,990.8
2018-01-08T10:59:34.438Z,990.8
2018-01-08T11:00:37.866Z,990.6
2018-01-08T11:01:41.167Z,990.7
2018-01-08T11:02:44.307Z,990.8
2018-01-08T11:03:47.374Z,990.8
2018-01-08T11:04:50.308Z,990.8
2018-01-08T11:05:53.538Z,990.8
2018-01-08T11:06:56.590Z,990.8
2018-01-08T11:07:59.940Z,990.5
2018-01-08T11:09:03.046Z,990.8
2018-01-08T11:10:06.067Z,990.5
2018-01-08T11:11:09.358Z,990.4
2018-01-08T11:12:13.199Z,990.6
2018-01-08T11:13:23.822Z,990.7
2018-01-08T11:22:36.508Z,990.6
2018-01-08T11:25:17.522Z,990.6
2018-01-08T11:27:34.895Z,990.4
2018-01-08T11:28:37.721Z,990.5
2018-01-08T11:30:55.096Z,990.4
2018-01-08T11:33:17.709Z,990.3
2018-01-08T11:34:23.758Z,990.4
2018-01-08T11:35:26.792Z,990.4
2018-01-08T11:36:31.375Z,990.3
2018-01-08T11:37:35.144Z,990.3
2018-01-08T11:38:39.124Z,990.3
2018-01-08T11:39:42.709Z,990.2
2018-01-08T11:40:45.405Z,990.3
2018-01-08T11:42:29.559Z,990.1
2018-01-08T11:43:33.437Z,990.1
2018-01-08T11:45:49.595Z,990.2
2018-01-08T11:46:53.287Z,990.2
2018-01-08T11:47:56.050Z,990.2
2018-01-08T11:48:59.699Z,990.2
2018-01-08T11:50:03.009Z,990.2
2018-01-08T11:51:06.076Z,990.1
2018-01-08T11:52:09.043Z,990.2
2018-01-08T11:53:11.811Z,990.1
2018-01-08T11:54:14.769Z,990.1
2018-01-08T11:55:18.139Z,990.1
2018-01-08T11:56:20.899Z,990
2018-01-08T11:57:23.931Z,990
2018-01-08T11:58:27.090Z,989.9
2018-01-08T11:59:30.846Z,990
2018-01-08T12:00:33.944Z,990
2018-01-08T12:01:37.021Z,989.8
2018-01-08T12:02:40.130Z,990
2018-01-08T12:03:43.592Z,990
2018-01-08T12:04:47.311Z,990
2018-01-08T12:05:50.582Z,990
2018-01-08T12:06:54.210Z,990
2018-01-08T12:07:57.937Z,990
2018-01-08T12:09:01.201Z,990
2018-01-08T12:10:04.961Z,989.9
2018-01-08T12:11:07.829Z,989.9
2018-01-08T12:12:11.722Z,989.8
2018-01-08T12:13:15.756Z,989.7
2018-01-08T12:14:19.303Z,989.9
2018-01-08T12:15:23.079Z,989.8
2018-01-08T12:16:26.000Z,989.8
2018-01-08T12:17:28.812Z,989.8
2018-01-08T12:18:32.132Z,989.8
2018-01-08T12:19:35.308Z,989.7
2018-01-08T12:20:38.319Z,989.7
2018-01-08T12:21:48.644Z,989.7
2018-01-08T12:22:52.479Z,989.7
2018-01-08T12:23:56.684Z,989.7
2018-01-08T12:25:04.178Z,989.7
2018-01-08T12:26:07.256Z,989.7
2018-01-08T12:27:19.721Z,989.6
2018-01-08T12:28:22.870Z,989.6
2018-01-08T12:29:30.025Z,989.6
2018-01-08T12:30:33.930Z,989.7
2018-01-08T12:31:44.524Z,989.7
2018-01-08T12:32:47.606Z,989.7
2018-01-08T12:33:50.366Z,989.7
2018-01-08T12:34:53.770Z,989.5
2018-01-08T12:35:58.048Z,989.6
2018-01-08T12:37:02.161Z,989.6
2018-01-08T12:38:52.807Z,989.6
2018-01-08T12:39:55.383Z,989.6
2018-01-08T12:40:57.964Z,989.6
2018-01-08T12:42:00.693Z,989.6
2018-01-08T12:43:09.069Z,989.6
2018-01-08T12:44:12.793Z,989.5
2018-01-08T12:45:15.491Z,989.5
2018-01-08T12:46:18.188Z,989.5
2018-01-08T12:47:21.896Z,989.5
2018-01-08T12:48:24.763Z,989.5
2018-01-08T12:49:27.544Z,989.5
2018-01-08T12:50:31.215Z,989.6
2018-01-08T12:51:34.080Z,989.6
2018-01-08T12:52:36.779Z,989.6
2018-01-08T12:53:39.988Z,989.3
2018-01-08T12:54:42.847Z,989.6
2018-01-08T12:55:45.630Z,989.3
2018-01-08T12:56:48.549Z,989.6
2018-01-08T12:57:51.728Z,989.3
2018-01-08T12:58:55.488Z,989.6
2018-01-08T13:00:04.431Z,989.6
2018-01-08T13:01:08.626Z,989.5
2018-01-08T13:02:11.647Z,989.5
2018-01-08T13:03:14.439Z,989.4
2018-01-08T13:04:17.127Z,989.4
2018-01-08T13:05:19.770Z,989.4
2018-01-08T13:06:22.683Z,989.4
2018-01-08T13:07:25.320Z,989.4
2018-01-08T13:08:28.866Z,989.4
2018-01-08T13:09:31.869Z,989.4
2018-01-08T13:10:34.718Z,989.5
2018-01-08T13:11:37.883Z,989.4
2018-01-08T13:12:40.607Z,989.4
2018-01-08T13:13:43.489Z,989.5
2018-01-08T13:14:46.203Z,989.4
2018-01-08T13:15:49.306Z,989.4
2018-01-08T13:16:52.139Z,989.4
2018-01-08T13:17:54.864Z,989.4
2018-01-08T13:18:57.510Z,989.4
2018-01-08T13:20:00.230Z,989.3
2018-01-08T13:21:03.253Z,989.3
2018-01-08T13:22:06.068Z,989.2
2018-01-08T13:23:18.620Z,989.1
2018-01-08T13:24:21.944Z,989.3
2018-01-08T13:25:24.782Z,989.2
2018-01-08T13:26:27.698Z,989.3
2018-01-08T13:27:30.929Z,989.3
2018-01-08T13:28:33.787Z,989.1
2018-01-08T13:29:36.935Z,989.3
2018-01-08T13:30:39.902Z,989
2018-01-08T13:31:42.689Z,989.3
2018-01-08T13:32:46.378Z,989.2
2018-01-08T13:33:49.043Z,989.3
2018-01-08T13:34:51.896Z,989.2
2018-01-08T13:35:54.765Z,989.2
2018-01-08T13:36:58.857Z,989.2
2018-01-08T13:38:01.765Z,989.2
2018-01-08T13:39:05.487Z,989.3
2018-01-08T13:40:08.638Z,989.2
2018-01-08T13:41:11.280Z,989.3
2018-01-08T13:42:14.283Z,989.2
2018-01-08T13:43:16.891Z,989.2
2018-01-08T13:44:19.829Z,989.1
2018-01-08T13:45:22.672Z,989.2
2018-01-08T13:46:25.288Z,989.2
2018-01-08T13:47:27.960Z,989.3
2018-01-08T13:48:30.624Z,989.3
2018-01-08T13:49:33.382Z,989.2
2018-01-08T13:50:36.023Z,989.3
2018-01-08T13:51:38.890Z,989.2
2018-01-08T13:52:41.838Z,989.3
2018-01-08T13:53:44.994Z,989.2